KGFL/GFL METAR and TAF weather

Enter ICAO airport designator
Station Type Date Time Source
KGFL METAR 2020/04/04 19:53 UTC NOAA

KGFL 041953Z AUTO 00000KT 10SM OVC055 16/04 A2995 RMK AO2 SLP144 T01560039


Station Type Date Time Source
KGFL Decoded METAR 2020/04/04 19:53 UTC NOAA

FLOYD BENNETT MEMORIAL AIRPORT , NY, United States (KGFL) 43-20N 073-37W 103M
Apr 04, 2020 - 03:53 PM EDT / 2020.04.04 1953 UTC
Wind: Calm:0
Visibility: 10 mile(s):0
Sky conditions: overcast
Temperature: 60.1 F (15.6 C)
Dew Point: 39.0 F (3.9 C)
Relative Humidity: 45%
Pressure (altimeter): 29.95 in. Hg (1014 hPa)
ob: KGFL 041953Z AUTO 00000KT 10SM OVC055 16/04 A2995 RMK AO2 SLP144 T01560039
cycle: 20

Station Type Date Time Source
KGFL TAF 2020/04/04 18:24 UTC NOAA

TAF KGFL 041723Z 0418/0518 VRB02KT P6SM SCT035
FM041900 VRB02KT P6SM BKN035
FM050400 00000KT P6SM OVC025
FM051500 17004KT P6SM BKN035

Example: see airport list